Time;durP1;ratioP1;P1;durP2;ratioP2;P2;SDS_P1;SDS_P2;PMS_P1;PMS_P2;Temp;Humidity;BMP_temperature;BMP_pressure;BME280_temperature;BME280_humidity;BME280_pressure;Samples;Min_cycle;Max_cycle;Signal;HPM_P1;HPM_P2
2023/09/27 00:00:13;;;;;;;17.55;7.03;;;15.10;99.90;;;;;;5027488;28;20048;-73
2023/09/27 00:02:40;;;;;;;14.73;8.27;;;15.10;99.90;;;;;;5029611;28;20504;-74
2023/09/27 00:05:07;;;;;;;13.52;8.00;;;15.10;99.90;;;;;;5022355;28;20044;-74
2023/09/27 00:07:37;;;;;;;15.52;7.43;;;15.10;99.90;;;;;;5024318;28;20040;-74
2023/09/27 00:10:04;;;;;;;18.30;8.35;;;15.10;99.90;;;;;;5009138;28;20045;-74
2023/09/27 00:12:31;;;;;;;12.27;7.22;;;15.10;99.90;;;;;;5026116;28;20064;-74
2023/09/27 00:15:01;;;;;;;13.90;8.07;;;15.10;99.90;;;;;;5009546;28;20459;-74
2023/09/27 00:17:28;;;;;;;14.80;7.60;;;15.10;99.90;;;;;;5027768;28;20120;-74
2023/09/27 00:19:54;;;;;;;16.27;7.70;;;15.10;99.90;;;;;;5024395;28;20084;-74
2023/09/27 00:22:19;;;;;;;16.52;8.68;;;15.10;99.90;;;;;;5042973;28;20045;-74
2023/09/27 00:24:45;;;;;;;16.63;7.55;;;15.00;99.90;;;;;;5023812;28;20625;-73
2023/09/27 00:27:11;;;;;;;15.38;8.40;;;15.00;99.90;;;;;;5009238;28;20033;-74
2023/09/27 00:29:37;;;;;;;15.07;7.82;;;15.00;99.90;;;;;;5009451;28;20041;-73
2023/09/27 00:32:02;;;;;;;17.35;8.82;;;15.00;99.90;;;;;;5026503;28;20034;-74
2023/09/27 00:34:28;;;;;;;13.60;8.02;;;15.00;99.90;;;;;;5023113;28;20072;-74
2023/09/27 00:36:54;;;;;;;15.48;8.90;;;15.00;99.90;;;;;;5025011;28;20045;-74
2023/09/27 00:39:19;;;;;;;16.75;8.30;;;15.00;99.90;;;;;;5047435;28;20494;-74
2023/09/27 00:41:45;;;;;;;16.67;8.70;;;15.00;99.90;;;;;;5030031;28;20053;-74
2023/09/27 00:44:10;;;;;;;16.25;9.40;;;15.10;99.90;;;;;;5013559;28;20041;-73
2023/09/27 00:46:36;;;;;;;16.27;8.95;;;15.10;99.90;;;;;;5029198;28;20040;-73
2023/09/27 00:49:03;;;;;;;14.95;8.85;;;15.10;99.90;;;;;;5047245;28;20063;-73
2023/09/27 00:51:29;;;;;;;18.23;9.40;;;15.10;99.90;;;;;;5033215;28;20037;-73
2023/09/27 00:53:56;;;;;;;19.80;9.82;;;15.10;99.90;;;;;;5028369;28;20033;-74
2023/09/27 00:56:22;;;;;;;17.20;10.25;;;15.10;99.90;;;;;;5023050;28;20114;-73
2023/09/27 00:58:48;;;;;;;16.58;9.30;;;15.10;99.90;;;;;;5027367;28;20175;-73
2023/09/27 01:01:15;;;;;;;16.27;8.93;;;15.10;99.90;;;;;;5027146;28;20085;-74
2023/09/27 01:03:41;;;;;;;19.38;9.30;;;15.10;99.90;;;;;;5024180;28;20068;-73
2023/09/27 01:06:07;;;;;;;17.08;9.32;;;15.00;99.90;;;;;;5024066;28;20029;-74
2023/09/27 01:08:33;;;;;;;18.92;9.77;;;15.00;99.90;;;;;;5026324;28;20678;-74
2023/09/27 01:10:59;;;;;;;17.23;9.30;;;15.00;99.90;;;;;;5010190;28;20045;-73
2023/09/27 01:13:25;;;;;;;18.60;10.07;;;15.00;99.90;;;;;;5026379;28;20566;-74
2023/09/27 01:15:51;;;;;;;14.80;8.50;;;15.00;99.90;;;;;;5024368;28;20073;-74
2023/09/27 01:18:17;;;;;;;14.90;9.70;;;15.00;99.90;;;;;;5008881;28;20037;-74
2023/09/27 01:20:42;;;;;;;17.02;10.02;;;15.00;99.90;;;;;;5024829;28;20038;-74
2023/09/27 01:23:08;;;;;;;17.33;9.70;;;15.00;99.90;;;;;;5039571;28;20059;-73
2023/09/27 01:25:35;;;;;;;15.57;9.38;;;15.00;99.90;;;;;;5022702;28;20037;-73
2023/09/27 01:28:04;;;;;;;16.65;9.07;;;15.00;99.90;;;;;;5027054;28;20053;-74
2023/09/27 01:30:33;;;;;;;14.57;8.38;;;15.00;99.90;;;;;;5023091;28;20040;-73
2023/09/27 01:32:59;;;;;;;16.35;8.63;;;15.00;99.90;;;;;;5026151;28;20044;-74
2023/09/27 01:35:25;;;;;;;18.10;9.15;;;14.90;99.90;;;;;;5023462;28;20513;-74
2023/09/27 01:37:50;;;;;;;15.45;8.60;;;15.00;99.90;;;;;;5026866;28;20053;-74
2023/09/27 01:40:17;;;;;;;16.63;8.90;;;14.90;99.90;;;;;;5035471;28;20041;-74
2023/09/27 01:42:43;;;;;;;13.70;8.20;;;14.90;99.90;;;;;;5043147;28;20073;-74
2023/09/27 01:45:12;;;;;;;13.40;8.18;;;14.90;99.90;;;;;;5028664;28;20449;-74
2023/09/27 01:47:39;;;;;;;15.07;8.25;;;14.90;99.90;;;;;;5012193;28;20541;-74
2023/09/27 01:50:07;;;;;;;15.80;9.13;;;14.90;99.90;;;;;;5013096;28;20040;-74
2023/09/27 01:52:33;;;;;;;14.80;8.60;;;14.80;99.90;;;;;;5030886;28;20036;-74
2023/09/27 01:54:58;;;;;;;14.80;9.07;;;14.90;99.90;;;;;;5008347;28;20041;-74
2023/09/27 01:57:24;;;;;;;14.80;7.88;;;14.80;99.90;;;;;;5025159;28;20178;-73
2023/09/27 01:59:49;;;;;;;16.83;8.27;;;14.80;99.90;;;;;;5024090;28;20045;-74
2023/09/27 02:02:15;;;;;;;14.18;8.63;;;14.80;99.90;;;;;;5024737;28;20044;-73
2023/09/27 02:04:41;;;;;;;17.88;9.63;;;14.70;99.90;;;;;;5025850;28;20045;-74
2023/09/27 02:07:06;;;;;;;17.52;8.30;;;14.80;99.90;;;;;;5024437;28;20037;-74
2023/09/27 02:09:32;;;;;;;15.80;8.88;;;14.70;99.90;;;;;;5024864;28;20035;-74
2023/09/27 02:11:57;;;;;;;12.57;8.00;;;14.80;99.90;;;;;;5022754;28;20605;-74
2023/09/27 02:14:23;;;;;;;15.07;9.00;;;14.70;99.90;;;;;;5006939;28;20049;-74
2023/09/27 02:16:48;;;;;;;19.80;8.68;;;14.70;99.90;;;;;;5026012;28;20095;-74
2023/09/27 02:19:14;;;;;;;14.82;8.60;;;14.70;99.90;;;;;;5025984;28;20132;-74
2023/09/27 02:21:40;;;;;;;18.63;9.52;;;14.60;99.90;;;;;;5023479;28;20045;-73
2023/09/27 02:24:11;;;;;;;15.30;9.02;;;14.60;99.90;;;;;;5025107;28;20037;-74
2023/09/27 02:26:37;;;;;;;15.00;8.60;;;14.60;99.90;;;;;;5023737;28;20033;-73
2023/09/27 02:29:03;;;;;;;16.88;8.43;;;14.60;99.90;;;;;;5024554;28;20072;-74
2023/09/27 02:31:29;;;;;;;16.88;8.82;;;14.60;99.90;;;;;;5022204;28;20593;-73
2023/09/27 02:33:55;;;;;;;14.98;8.52;;;14.50;99.90;;;;;;5024119;28;20052;-73
2023/09/27 02:36:20;;;;;;;14.35;8.55;;;14.50;99.90;;;;;;5023292;28;20041;-74
2023/09/27 02:38:46;;;;;;;14.65;8.13;;;14.50;99.90;;;;;;5025390;28;20441;-74
2023/09/27 02:41:13;;;;;;;17.65;8.68;;;14.40;99.90;;;;;;5024989;28;20129;-74
2023/09/27 02:43:40;;;;;;;16.13;9.40;;;14.40;99.90;;;;;;5024345;28;20139;-74
2023/09/27 02:46:06;;;;;;;15.32;8.73;;;14.40;99.90;;;;;;5020208;28;20037;-74
2023/09/27 02:48:32;;;;;;;16.55;9.77;;;14.40;99.90;;;;;;5023877;28;20033;-74
2023/09/27 02:50:58;;;;;;;20.17;10.02;;;14.40;99.90;;;;;;5023756;28;20040;-74
2023/09/27 02:53:23;;;;;;;14.95;8.65;;;14.40;99.90;;;;;;5025015;28;20126;-74
2023/09/27 02:55:49;;;;;;;15.32;9.43;;;14.40;99.90;;;;;;5023488;28;20396;-74
2023/09/27 02:58:15;;;;;;;17.17;10.02;;;14.40;99.90;;;;;;5024484;28;20119;-74
2023/09/27 03:00:41;;;;;;;16.58;9.52;;;14.40;99.90;;;;;;5005293;28;20759;-74
2023/09/27 03:03:07;;;;;;;15.23;9.43;;;14.40;99.90;;;;;;5023860;28;20055;-74
2023/09/27 03:05:36;;;;;;;16.70;9.93;;;14.40;99.90;;;;;;5023243;28;20507;-73
2023/09/27 03:08:03;;;;;;;16.95;9.13;;;14.40;99.90;;;;;;5024824;28;20072;-74
2023/09/27 03:10:29;;;;;;;16.48;9.30;;;14.40;99.90;;;;;;5023668;28;20361;-73
2023/09/27 03:12:55;;;;;;;16.88;9.70;;;14.30;99.90;;;;;;5036538;28;21970;-74
2023/09/27 03:15:21;;;;;;;18.33;9.75;;;14.40;99.90;;;;;;5024509;28;20064;-74
2023/09/27 03:17:48;;;;;;;16.15;8.68;;;14.30;99.90;;;;;;5023900;28;20435;-74
2023/09/27 03:20:15;;;;;;;18.40;9.73;;;14.40;99.90;;;;;;5022066;28;20793;-74
2023/09/27 03:22:42;;;;;;;19.60;10.50;;;14.30;99.90;;;;;;5020882;28;20061;-74
2023/09/27 03:25:09;;;;;;;15.20;9.00;;;14.40;99.90;;;;;;5008151;28;20065;-74
2023/09/27 03:27:34;;;;;;;16.17;9.25;;;14.30;99.90;;;;;;5022760;28;20038;-74
2023/09/27 03:30:00;;;;;;;18.23;9.80;;;14.30;99.90;;;;;;5023943;28;20399;-74
2023/09/27 03:32:26;;;;;;;17.48;9.27;;;14.30;99.90;;;;;;5020879;28;20113;-74
2023/09/27 03:34:52;;;;;;;17.23;8.80;;;14.40;99.90;;;;;;5024182;28;20502;-74
2023/09/27 03:37:17;;;;;;;18.45;10.20;;;14.40;99.90;;;;;;5023135;28;20701;-74
2023/09/27 03:39:43;;;;;;;21.77;10.00;;;14.40;99.90;;;;;;5006023;28;20041;-74
2023/09/27 03:42:09;;;;;;;14.85;9.55;;;14.30;99.90;;;;;;5004075;28;20518;-73
2023/09/27 03:44:35;;;;;;;17.83;10.10;;;14.30;99.90;;;;;;5039020;28;20136;-74
2023/09/27 03:47:02;;;;;;;17.45;9.55;;;14.40;99.90;;;;;;5023109;28;20499;-74
2023/09/27 03:49:27;;;;;;;20.02;9.68;;;14.40;99.90;;;;;;5022088;28;20056;-73
2023/09/27 03:51:53;;;;;;;17.10;9.40;;;14.40;99.90;;;;;;5020424;28;20120;-74
2023/09/27 03:54:19;;;;;;;20.13;10.45;;;14.30;99.90;;;;;;5023598;28;20084;-74
2023/09/27 03:56:47;;;;;;;15.93;9.10;;;14.30;99.90;;;;;;5023631;28;20049;-74
2023/09/27 03:59:13;;;;;;;20.55;10.00;;;14.30;99.90;;;;;;5021394;28;20049;-74
2023/09/27 04:01:39;;;;;;;19.30;9.65;;;14.30;99.90;;;;;;5038141;28;20048;-74
2023/09/27 04:04:05;;;;;;;19.90;10.32;;;14.30;99.90;;;;;;5005413;28;20038;-74
2023/09/27 04:06:31;;;;;;;20.30;10.65;;;14.30;99.90;;;;;;5023811;28;20040;-74
2023/09/27 04:08:56;;;;;;;18.40;11.07;;;14.30;99.90;;;;;;5020904;28;20173;-74
2023/09/27 04:11:22;;;;;;;17.48;9.70;;;14.30;99.90;;;;;;5013470;28;20498;-74
2023/09/27 04:13:48;;;;;;;21.13;11.00;;;14.20;99.90;;;;;;5023130;28;20037;-74
2023/09/27 04:16:14;;;;;;;22.25;11.82;;;14.30;99.90;;;;;;5024899;28;20050;-74
2023/09/27 04:18:39;;;;;;;21.90;11.05;;;14.20;99.90;;;;;;5004183;28;20566;-74
2023/09/27 04:21:09;;;;;;;18.35;10.38;;;14.20;99.90;;;;;;5020478;28;20034;-74
2023/09/27 04:23:36;;;;;;;20.38;10.88;;;14.20;99.90;;;;;;5006633;28;20048;-74
2023/09/27 04:26:05;;;;;;;21.17;11.10;;;14.20;99.90;;;;;;5005155;28;20079;-74
2023/09/27 04:28:30;;;;;;;18.67;10.43;;;14.20;99.90;;;;;;5020652;28;20590;-74
2023/09/27 04:30:56;;;;;;;18.42;10.18;;;14.20;99.90;;;;;;5005009;28;20041;-74
2023/09/27 04:33:22;;;;;;;15.73;9.77;;;14.20;99.90;;;;;;5023646;28;20048;-74
2023/09/27 04:35:48;;;;;;;18.42;10.32;;;14.20;99.90;;;;;;5020332;28;20060;-73
2023/09/27 04:38:14;;;;;;;20.80;10.60;;;14.10;99.90;;;;;;5028757;28;20045;-74
2023/09/27 04:40:40;;;;;;;19.15;10.38;;;14.10;99.90;;;;;;5025107;28;20045;-74
2023/09/27 04:43:06;;;;;;;19.55;11.18;;;14.10;99.90;;;;;;5010134;28;20541;-74
2023/09/27 04:45:33;;;;;;;19.83;11.10;;;14.10;99.90;;;;;;5009047;28;20044;-74
2023/09/27 04:47:59;;;;;;;18.58;10.18;;;14.10;99.90;;;;;;5024520;28;20053;-73
2023/09/27 04:50:25;;;;;;;20.83;10.65;;;14.10;99.90;;;;;;5025282;28;20495;-74
2023/09/27 04:52:51;;;;;;;19.70;10.77;;;14.10;99.90;;;;;;5008538;28;20030;-74
2023/09/27 04:55:17;;;;;;;25.52;11.75;;;14.20;99.90;;;;;;5026942;28;20043;-74
2023/09/27 04:57:43;;;;;;;23.55;11.85;;;14.10;99.90;;;;;;5008798;28;20044;-73
2023/09/27 05:00:18;;;;;;;20.25;11.45;;;14.10;99.90;;;;;;5022411;28;20045;-74
2023/09/27 05:02:45;;;;;;;20.33;11.43;;;14.10;99.90;;;;;;5024971;28;20783;-74
2023/09/27 05:05:11;;;;;;;19.92;10.90;;;14.10;99.90;;;;;;5026045;28;20045;-74
2023/09/27 05:07:37;;;;;;;18.75;10.95;;;14.10;99.90;;;;;;5026238;28;20026;-73
2023/09/27 05:10:03;;;;;;;19.92;10.38;;;14.10;99.90;;;;;;5026116;28;20037;-73
2023/09/27 05:12:28;;;;;;;20.00;11.55;;;14.00;99.90;;;;;;5006926;28;20076;-74
2023/09/27 05:14:56;;;;;;;19.50;10.23;;;14.00;99.90;;;;;;5026834;28;20486;-74
2023/09/27 05:17:22;;;;;;;20.27;10.80;;;14.00;99.90;;;;;;5008788;28;20134;-73
2023/09/27 05:19:48;;;;;;;20.60;11.55;;;14.00;99.90;;;;;;5024989;28;20049;-74
2023/09/27 05:22:14;;;;;;;23.08;11.48;;;14.00;99.90;;;;;;5009651;28;20279;-74
2023/09/27 05:24:39;;;;;;;20.60;10.98;;;14.00;99.90;;;;;;5025321;28;20048;-74
2023/09/27 05:27:07;;;;;;;19.80;11.15;;;14.00;99.90;;;;;;5024557;28;20030;-74
2023/09/27 05:29:33;;;;;;;19.67;10.90;;;14.00;99.90;;;;;;5008928;28;20120;-73
2023/09/27 05:31:58;;;;;;;20.00;11.43;;;14.00;99.90;;;;;;5026936;28;20124;-73
2023/09/27 05:34:24;;;;;;;19.88;11.55;;;14.10;99.90;;;;;;5029494;28;20045;-73
2023/09/27 05:36:50;;;;;;;23.67;11.35;;;14.10;99.90;;;;;;5027769;28;20076;-73
2023/09/27 05:39:16;;;;;;;20.20;11.10;;;14.10;99.90;;;;;;5025766;28;20069;-75
2023/09/27 05:41:42;;;;;;;20.60;10.90;;;14.20;99.90;;;;;;5023472;28;20045;-73
2023/09/27 05:44:07;;;;;;;23.05;11.27;;;14.20;99.90;;;;;;5023895;28;20040;-74
2023/09/27 05:46:33;;;;;;;17.20;9.95;;;14.20;99.90;;;;;;5039747;28;20036;-74
2023/09/27 05:49:01;;;;;;;20.25;11.15;;;14.20;99.90;;;;;;5022722;28;20487;-75
2023/09/27 05:51:30;;;;;;;18.80;10.93;;;14.20;99.90;;;;;;5002394;28;20056;-74
2023/09/27 05:53:56;;;;;;;18.27;10.80;;;14.20;99.90;;;;;;5025863;28;20038;-74
2023/09/27 05:56:22;;;;;;;26.38;11.23;;;14.20;99.90;;;;;;5020328;28;20049;-74
2023/09/27 05:58:47;;;;;;;21.42;10.93;;;14.20;99.90;;;;;;5024311;28;20128;-74
2023/09/27 06:01:13;;;;;;;23.20;11.32;;;14.30;99.90;;;;;;5019416;28;20199;-75
2023/09/27 06:03:38;;;;;;;21.60;10.85;;;14.20;99.90;;;;;;5023109;28;20254;-75
2023/09/27 06:06:04;;;;;;;21.50;11.38;;;14.30;99.90;;;;;;5022405;28;20029;-75
2023/09/27 06:08:30;;;;;;;20.63;11.38;;;14.20;99.90;;;;;;5022602;28;20060;-75
2023/09/27 06:10:56;;;;;;;17.77;10.38;;;14.20;99.90;;;;;;5022440;28;20053;-74
2023/09/27 06:13:23;;;;;;;20.42;10.77;;;14.20;99.90;;;;;;5027077;28;20406;-75
2023/09/27 06:15:49;;;;;;;21.33;11.70;;;14.30;99.90;;;;;;5023155;28;20080;-74
2023/09/27 06:18:15;;;;;;;22.38;10.65;;;14.30;99.90;;;;;;5007336;28;20459;-75
2023/09/27 06:20:40;;;;;;;20.75;11.10;;;14.30;99.90;;;;;;5021844;28;20052;-74
2023/09/27 06:23:06;;;;;;;23.13;11.88;;;14.30;99.90;;;;;;5018270;28;20083;-75
2023/09/27 06:25:34;;;;;;;24.08;12.07;;;14.30;99.90;;;;;;5003481;28;20049;-75
2023/09/27 06:28:00;;;;;;;21.50;11.13;;;14.30;99.90;;;;;;5022958;28;20091;-75
2023/09/27 06:30:26;;;;;;;19.63;10.57;;;14.30;99.90;;;;;;5022423;28;20843;-75
2023/09/27 06:32:52;;;;;;;21.08;11.82;;;14.30;99.90;;;;;;5002474;28;20125;-74
2023/09/27 06:35:18;;;;;;;24.13;12.95;;;14.30;99.90;;;;;;5000658;28;20116;-75
2023/09/27 06:37:48;;;;;;;17.13;10.88;;;14.30;99.90;;;;;;5039150;28;20037;-74
2023/09/27 06:40:19;;;;;;;21.50;11.38;;;14.30;99.90;;;;;;5024325;28;20044;-75
2023/09/27 06:42:45;;;;;;;25.00;12.88;;;14.30;99.90;;;;;;5022530;28;20045;-74
2023/09/27 06:45:13;;;;;;;19.67;11.60;;;14.30;99.90;;;;;;5023209;28;20045;-75
2023/09/27 06:47:41;;;;;;;20.60;10.63;;;14.30;99.90;;;;;;5024467;28;20083;-75
2023/09/27 06:50:08;;;;;;;22.80;11.70;;;14.40;99.90;;;;;;5006697;28;20038;-75
2023/09/27 06:52:37;;;;;;;22.75;11.35;;;14.40;99.90;;;;;;5020014;28;20486;-75
2023/09/27 06:55:03;;;;;;;20.52;11.95;;;14.40;99.90;;;;;;5022245;28;20041;-75
2023/09/27 06:57:28;;;;;;;21.45;11.32;;;14.40;99.90;;;;;;5023547;28;20038;-75
2023/09/27 06:59:54;;;;;;;20.08;11.75;;;14.40;99.90;;;;;;5022708;28;20073;-76
2023/09/27 07:02:20;;;;;;;26.02;12.95;;;14.40;99.90;;;;;;5023984;28;20565;-74
2023/09/27 07:04:47;;;;;;;19.60;11.40;;;14.50;99.90;;;;;;5001826;28;20038;-75
2023/09/27 07:07:13;;;;;;;22.00;11.57;;;14.50;99.90;;;;;;5023307;28;20051;-75
2023/09/27 07:09:40;;;;;;;22.20;11.13;;;14.50;99.90;;;;;;5005781;28;20037;-74
2023/09/27 07:12:06;;;;;;;20.60;10.82;;;14.60;99.90;;;;;;5004820;28;20045;-74
2023/09/27 07:14:31;;;;;;;20.60;11.63;;;14.60;99.90;;;;;;5021019;28;20076;-74
2023/09/27 07:16:57;;;;;;;24.73;12.23;;;14.60;99.90;;;;;;5023705;28;20037;-74
2023/09/27 07:19:23;;;;;;;21.15;11.50;;;14.70;99.90;;;;;;5023403;28;20052;-75
2023/09/27 07:21:49;;;;;;;22.63;11.52;;;14.70;99.90;;;;;;5022514;28;20553;-74
2023/09/27 07:24:14;;;;;;;20.55;11.82;;;14.70;99.90;;;;;;5020822;28;20065;-75
2023/09/27 07:26:41;;;;;;;18.95;11.27;;;14.70;99.90;;;;;;5022994;28;20434;-74
2023/09/27 07:29:07;;;;;;;22.15;12.07;;;14.80;99.90;;;;;;5038619;28;20045;-75
2023/09/27 07:31:35;;;;;;;23.98;12.73;;;14.80;99.90;;;;;;5023172;28;20226;-75
2023/09/27 07:34:01;;;;;;;25.05;11.10;;;14.80;99.90;;;;;;5021356;28;20793;-75
2023/09/27 07:36:27;;;;;;;23.52;13.18;;;14.90;99.90;;;;;;5025389;28;20049;-75
2023/09/27 07:38:55;;;;;;;19.30;11.02;;;14.90;99.90;;;;;;5022419;28;20540;-75
2023/09/27 07:41:21;;;;;;;22.35;12.65;;;14.90;99.90;;;;;;5022003;28;20502;-75
2023/09/27 07:43:50;;;;;;;22.52;11.25;;;15.00;99.90;;;;;;5022348;28;20064;-75
2023/09/27 07:46:17;;;;;;;26.35;12.82;;;15.00;99.90;;;;;;5006299;28;20037;-75
2023/09/27 07:48:43;;;;;;;22.42;11.90;;;15.00;99.90;;;;;;5021029;28;20048;-75
2023/09/27 07:51:19;;;;;;;20.40;11.82;;;15.00;99.90;;;;;;5020275;28;20033;-75
2023/09/27 07:53:45;;;;;;;;;;;15.00;99.90;;;;;;5023188;28;20148;-75
2023/09/27 07:56:19;;;;;;;20.00;10.93;;;15.00;99.90;;;;;;5006420;28;20363;-76
2023/09/27 07:58:46;;;;;;;20.73;11.90;;;15.00;99.90;;;;;;5023236;28;20076;-75
2023/09/27 08:01:12;;;;;;;22.27;10.90;;;15.00;99.90;;;;;;5022616;28;20136;-75
2023/09/27 08:03:38;;;;;;;20.92;11.27;;;15.00;99.90;;;;;;5019097;28;20132;-75
2023/09/27 08:06:04;;;;;;;22.27;11.68;;;15.10;99.90;;;;;;5023268;28;20045;-74
2023/09/27 08:08:30;;;;;;;21.25;11.25;;;15.00;99.90;;;;;;5040535;28;20041;-75
2023/09/27 08:10:57;;;;;;;19.95;11.57;;;15.10;99.90;;;;;;5027507;28;20025;-75
2023/09/27 08:13:25;;;;;;;23.13;11.95;;;15.10;99.90;;;;;;5025996;28;20965;-75
2023/09/27 08:15:51;;;;;;;19.77;11.15;;;15.10;99.90;;;;;;5014062;28;20284;-75
2023/09/27 08:18:17;;;;;;;21.60;11.05;;;15.10;99.90;;;;;;5030319;28;20090;-75
2023/09/27 08:20:43;;;;;;;21.15;10.65;;;15.20;99.90;;;;;;5037640;28;20053;-74
2023/09/27 08:23:09;;;;;;;22.83;11.73;;;15.10;99.90;;;;;;5037676;28;20032;-75
2023/09/27 08:25:37;;;;;;;20.63;11.20;;;15.10;99.90;;;;;;5023172;28;20090;-75
2023/09/27 08:28:03;;;;;;;21.02;12.00;;;15.20;99.90;;;;;;5024942;28;20102;-75
2023/09/27 08:30:29;;;;;;;22.80;11.90;;;15.20;99.90;;;;;;5006148;28;20091;-75
2023/09/27 08:32:54;;;;;;;23.83;11.57;;;15.30;99.90;;;;;;5025881;28;20037;-75
2023/09/27 08:35:20;;;;;;;22.35;11.50;;;15.30;99.90;;;;;;5023777;28;20041;-75
2023/09/27 08:37:46;;;;;;;22.08;12.70;;;15.40;99.90;;;;;;5021595;28;20584;-75
2023/09/27 08:40:15;;;;;;;24.30;12.70;;;15.40;99.90;;;;;;5008999;28;20298;-75
2023/09/27 08:42:42;;;;;;;24.75;11.45;;;15.50;99.90;;;;;;5042564;28;20144;-75
2023/09/27 08:45:13;;;;;;;24.13;12.68;;;15.50;99.90;;;;;;5006954;28;20049;-75
2023/09/27 08:47:45;;;;;;;19.95;11.55;;;15.50;99.90;;;;;;5020216;28;20053;-75
2023/09/27 08:50:13;;;;;;;20.80;11.98;;;15.50;99.90;;;;;;5037380;28;20419;-75
2023/09/27 08:52:47;;;;;;;21.85;12.15;;;15.60;99.90;;;;;;5035710;28;20477;-75
2023/09/27 08:55:13;;;;;;;22.20;12.07;;;15.70;99.90;;;;;;5023607;28;20056;-75
2023/09/27 08:57:47;;;;;;;23.63;12.00;;;15.70;99.90;;;;;;5026135;28;20045;-75
2023/09/27 09:00:21;;;;;;;20.98;12.13;;;15.80;99.90;;;;;;5026297;28;20199;-75
2023/09/27 09:02:49;;;;;;;22.10;11.55;;;15.80;99.90;;;;;;5002636;28;20045;-75
2023/09/27 09:05:17;;;;;;;21.10;11.70;;;15.80;99.90;;;;;;5007196;28;20334;-75
2023/09/27 09:07:43;;;;;;;25.00;12.15;;;15.90;99.90;;;;;;5021851;28;20037;-76
2023/09/27 09:10:13;;;;;;;21.58;11.63;;;15.90;99.90;;;;;;5020515;28;20111;-75
2023/09/27 09:12:41;;;;;;;18.20;9.90;;;16.00;99.90;;;;;;5027088;28;20108;-75
2023/09/27 09:15:15;;;;;;;19.73;10.90;;;16.00;99.90;;;;;;5010093;28;20182;-75
2023/09/27 09:17:50;;;;;;;19.42;10.60;;;16.10;99.90;;;;;;5026088;28;20116;-75
2023/09/27 09:20:17;;;;;;;20.67;10.30;;;16.10;99.90;;;;;;5020308;28;20441;-74
2023/09/27 09:22:44;;;;;;;20.10;10.35;;;16.20;99.90;;;;;;5024139;28;20057;-74
2023/09/27 09:25:10;;;;;;;24.10;11.18;;;16.30;99.90;;;;;;5022917;28;20085;-77
2023/09/27 09:27:36;;;;;;;19.33;10.13;;;16.40;99.90;;;;;;5009498;28;20440;-74
2023/09/27 09:30:06;;;;;;;20.17;10.10;;;16.50;99.90;;;;;;5024988;28;20495;-72
2023/09/27 09:32:33;;;;;;;19.05;9.98;;;16.50;99.90;;;;;;5022793;28;20042;-73
2023/09/27 09:34:58;;;;;;;15.63;9.38;;;16.50;99.90;;;;;;5020165;28;20050;-74
2023/09/27 09:37:31;;;;;;;19.50;9.48;;;16.60;99.90;;;;;;5023728;28;21391;-77
2023/09/27 09:40:14;;;;;;;18.35;9.40;;;16.60;99.90;;;;;;5005792;28;20041;-75
2023/09/27 09:42:41;;;;;;;15.77;8.43;;;16.60;99.90;;;;;;5040258;28;20045;-74
2023/09/27 09:45:10;;;;;;;15.10;8.43;;;16.60;99.90;;;;;;5024372;28;20088;-75
2023/09/27 09:47:41;;;;;;;19.35;8.15;;;16.70;99.90;;;;;;5022608;28;20161;-75
2023/09/27 09:50:16;;;;;;;18.00;8.40;;;16.80;99.90;;;;;;5023430;28;20038;-75
2023/09/27 09:52:48;;;;;;;18.20;8.68;;;16.80;99.90;;;;;;5041090;28;20083;-75
2023/09/27 09:55:19;;;;;;;14.55;7.35;;;16.90;99.90;;;;;;5025834;28;20041;-75
2023/09/27 09:57:46;;;;;;;15.60;7.95;;;16.90;99.90;;;;;;5025468;28;20044;-75
2023/09/27 10:00:18;;;;;;;13.40;7.30;;;17.00;99.90;;;;;;5022966;28;20785;-75
2023/09/27 10:02:49;;;;;;;15.23;7.22;;;17.00;99.90;;;;;;5006620;28;20136;-75
2023/09/27 10:05:19;;;;;;;13.13;7.00;;;17.00;99.90;;;;;;5027032;28;20045;-75
2023/09/27 10:07:50;;;;;;;13.80;7.53;;;17.10;99.90;;;;;;5029395;28;20132;-75
2023/09/27 10:10:19;;;;;;;11.23;6.22;;;17.10;99.90;;;;;;5022158;28;20569;-75
2023/09/27 10:12:52;;;;;;;13.43;7.82;;;17.30;99.90;;;;;;5026683;28;20268;-77
2023/09/27 10:15:20;;;;;;;17.42;7.70;;;17.30;99.90;;;;;;5025336;28;20083;-75
2023/09/27 10:17:46;;;;;;;16.35;8.43;;;17.30;99.90;;;;;;5018482;28;20041;-75
2023/09/27 10:20:17;;;;;;;16.75;8.65;;;17.30;99.90;;;;;;5043865;28;20052;-75
2023/09/27 10:22:47;;;;;;;14.98;8.13;;;17.30;99.90;;;;;;5025131;28;20057;-75
2023/09/27 10:25:28;;;;;;;13.45;8.10;;;17.40;99.90;;;;;;5027026;28;20042;-75
2023/09/27 10:28:04;;;;;;;14.48;7.78;;;17.40;99.90;;;;;;5028816;28;20112;-75
2023/09/27 10:30:44;;;;;;;15.25;8.00;;;17.40;99.90;;;;;;5024215;28;20025;-75
2023/09/27 10:33:15;;;;;;;13.88;7.72;;;17.50;99.90;;;;;;5023949;28;20049;-74
2023/09/27 10:36:00;;;;;;;14.77;8.00;;;17.50;99.90;;;;;;5006998;28;20049;-77
2023/09/27 10:38:49;;;;;;;15.10;8.55;;;17.60;99.90;;;;;;5023847;28;20068;-75
2023/09/27 10:41:38;;;;;;;17.77;9.30;;;17.70;99.90;;;;;;5024843;28;20049;-76
2023/09/27 10:44:04;;;;;;;16.85;7.70;;;17.70;99.90;;;;;;5010712;28;20038;-75
2023/09/27 10:46:45;;;;;;;16.25;9.25;;;17.80;99.90;;;;;;5023854;28;20040;-75
2023/09/27 10:49:11;;;;;;;14.50;8.55;;;17.80;99.90;;;;;;5025958;28;20226;-75
2023/09/27 10:51:37;;;;;;;15.85;8.50;;;17.90;99.90;;;;;;5025398;28;20041;-75
2023/09/27 10:54:08;;;;;;;14.93;8.50;;;17.90;99.90;;;;;;5025824;28;20045;-75
2023/09/27 10:56:34;;;;;;;17.58;9.45;;;17.90;99.90;;;;;;5025679;28;20052;-75
2023/09/27 10:58:59;;;;;;;17.05;9.23;;;18.00;99.90;;;;;;5027817;28;20046;-75
2023/09/27 11:01:25;;;;;;;18.42;9.80;;;18.00;99.90;;;;;;5010589;28;20041;-75
2023/09/27 11:04:01;;;;;;;15.00;8.27;;;18.10;99.90;;;;;;5025186;28;20091;-76
2023/09/27 11:06:28;;;;;;;14.93;7.93;;;18.10;99.90;;;;;;5011698;28;20069;-75
2023/09/27 11:09:07;;;;;;;14.90;7.30;;;18.20;99.90;;;;;;5024222;28;20435;-75
2023/09/27 11:11:34;;;;;;;16.92;8.25;;;18.30;99.90;;;;;;5010217;28;20095;-75
2023/09/27 11:14:00;;;;;;;15.15;7.55;;;18.40;99.90;;;;;;5022035;28;20060;-74
2023/09/27 11:16:25;;;;;;;12.93;7.45;;;18.40;99.90;;;;;;5024366;28;20037;-74
2023/09/27 11:18:51;;;;;;;12.13;6.45;;;18.40;99.90;;;;;;5009594;28;20055;-75
2023/09/27 11:21:17;;;;;;;12.82;7.40;;;18.50;99.90;;;;;;5034978;28;20111;-74
2023/09/27 11:23:56;;;;;;;14.23;7.72;;;18.50;99.90;;;;;;5009074;28;20083;-74
2023/09/27 11:26:22;;;;;;;14.25;6.60;;;18.60;99.90;;;;;;5021541;28;20030;-74
2023/09/27 11:28:59;;;;;;;13.52;7.22;;;18.60;99.90;;;;;;5019118;28;20033;-74
2023/09/27 11:31:26;;;;;;;11.95;6.63;;;18.60;99.90;;;;;;5025866;28;20038;-74
2023/09/27 11:33:52;;;;;;;10.77;5.78;;;18.70;99.90;;;;;;5025523;28;20041;-73
2023/09/27 11:36:17;;;;;;;9.23;4.90;;;18.60;99.90;;;;;;5021372;28;20041;-74
2023/09/27 11:38:50;;;;;;;12.60;6.18;;;18.70;99.90;;;;;;5022102;28;20077;-74
2023/09/27 11:41:18;;;;;;;10.93;6.03;;;18.70;99.90;;;;;;5037609;28;20041;-74
2023/09/27 11:43:45;;;;;;;10.98;6.25;;;18.70;99.90;;;;;;5023733;28;20499;-74
2023/09/27 11:46:11;;;;;;;11.75;6.68;;;18.80;99.90;;;;;;5005376;28;20511;-74
2023/09/27 11:48:36;;;;;;;12.95;6.85;;;18.80;99.90;;;;;;5022857;28;20037;-73
2023/09/27 11:51:02;;;;;;;10.07;6.60;;;18.90;99.90;;;;;;5026519;28;20450;-74
2023/09/27 11:53:28;;;;;;;12.23;6.38;;;18.80;99.90;;;;;;5017727;28;20041;-74
2023/09/27 11:55:55;;;;;;;13.50;5.93;;;18.90;99.90;;;;;;5020443;28;20608;-74
2023/09/27 11:58:22;;;;;;;10.85;5.72;;;18.80;99.90;;;;;;5007179;28;20037;-74
2023/09/27 12:00:48;;;;;;;14.05;6.47;;;18.80;99.90;;;;;;5020084;28;20050;-74
2023/09/27 12:03:13;;;;;;;10.88;5.38;;;18.80;99.90;;;;;;5016090;28;20436;-74
2023/09/27 12:05:39;;;;;;;11.07;6.28;;;18.80;99.90;;;;;;4994456;28;20511;-75
2023/09/27 12:08:06;;;;;;;11.93;6.20;;;18.70;99.90;;;;;;5020687;28;20052;-74
2023/09/27 12:10:31;;;;;;;9.30;5.53;;;18.70;99.90;;;;;;5014992;28;20041;-73
2023/09/27 12:12:57;;;;;;;11.43;6.88;;;18.70;99.90;;;;;;5022805;28;20040;-74
2023/09/27 12:15:22;;;;;;;10.00;5.75;;;18.80;99.90;;;;;;5005032;28;20049;-74
2023/09/27 12:17:48;;;;;;;14.93;6.78;;;18.80;99.90;;;;;;5022552;28;20467;-74
2023/09/27 12:20:14;;;;;;;15.88;7.07;;;18.90;99.90;;;;;;5022136;28;20099;-74
2023/09/27 12:22:40;;;;;;;13.18;5.90;;;18.90;99.90;;;;;;5020035;28;20132;-74
2023/09/27 12:25:06;;;;;;;12.20;6.10;;;18.90;99.90;;;;;;5019798;28;20052;-74
2023/09/27 12:27:33;;;;;;;13.85;6.20;;;19.00;99.90;;;;;;5022673;28;20061;-74
2023/09/27 12:29:59;;;;;;;11.23;6.57;;;19.00;99.90;;;;;;5006653;28;20029;-74
2023/09/27 12:32:25;;;;;;;10.43;6.47;;;19.00;99.90;;;;;;5002972;28;20119;-74